createdAt,value
2017-08-22T00:01:03.230Z,58.70
2017-08-22T00:03:35.758Z,57.90
2017-08-22T00:06:02.143Z,58.00
2017-08-22T00:08:28.559Z,58.00
2017-08-22T00:10:54.982Z,58.30
2017-08-22T00:13:21.371Z,58.40
2017-08-22T00:15:47.751Z,58.40
2017-08-22T00:18:14.143Z,58.50
2017-08-22T00:20:45.120Z,58.10
2017-08-22T00:23:11.524Z,58.60
2017-08-22T00:25:37.907Z,58.50
2017-08-22T00:28:04.306Z,58.50
2017-08-22T00:30:30.719Z,58.30
2017-08-22T00:32:57.864Z,58.30
2017-08-22T00:35:25.027Z,58.40
2017-08-22T00:37:51.448Z,58.40
2017-08-22T00:40:18.679Z,59.40
2017-08-22T00:42:45.242Z,59.40
2017-08-22T00:45:12.428Z,59.30
2017-08-22T00:47:38.830Z,59.20
2017-08-22T00:50:05.278Z,59.40
2017-08-22T00:52:31.716Z,59.70
2017-08-22T00:54:59.579Z,59.70
2017-08-22T00:57:25.991Z,59.50
2017-08-22T00:59:52.416Z,60.00
2017-08-22T01:02:18.835Z,59.60
2017-08-22T01:04:45.235Z,59.00
2017-08-22T01:07:11.910Z,59.70
2017-08-22T01:09:38.359Z,59.30
2017-08-22T01:12:04.774Z,59.40
2017-08-22T01:14:31.205Z,59.60
2017-08-22T01:16:59.899Z,59.50
2017-08-22T01:19:26.365Z,59.10
2017-08-22T01:21:52.806Z,59.40
2017-08-22T01:24:19.222Z,59.90
2017-08-22T01:26:45.654Z,60.60
2017-08-22T01:29:12.166Z,61.10
2017-08-22T01:31:39.353Z,60.80
2017-08-22T01:34:05.783Z,60.60
2017-08-22T01:36:32.238Z,60.50
2017-08-22T01:38:58.690Z,60.10
2017-08-22T01:41:25.155Z,60.70
2017-08-22T01:43:59.139Z,60.80
2017-08-22T01:46:25.552Z,61.00
2017-08-22T01:48:51.971Z,60.80
2017-08-22T01:51:18.411Z,61.40
2017-08-22T01:53:44.814Z,61.80
2017-08-22T01:56:11.223Z,61.40
2017-08-22T01:58:37.615Z,61.00
2017-08-22T02:01:04.054Z,60.40
2017-08-22T02:03:30.499Z,60.00
2017-08-22T02:05:56.907Z,59.60
2017-08-22T02:08:23.312Z,59.50
2017-08-22T02:10:56.709Z,59.50
2017-08-22T02:13:23.382Z,59.50
2017-08-22T02:15:49.819Z,59.50
2017-08-22T02:18:16.238Z,59.90
2017-08-22T02:20:42.627Z,60.10
2017-08-22T02:23:09.018Z,59.60
2017-08-22T02:25:35.443Z,59.40
2017-08-22T02:28:01.890Z,59.30
2017-08-22T02:30:28.302Z,59.80
2017-08-22T02:32:54.710Z,60.00
2017-08-22T02:35:21.134Z,59.70
2017-08-22T02:37:47.518Z,59.80
2017-08-22T02:40:13.979Z,59.90
2017-08-22T02:42:40.422Z,59.60
2017-08-22T02:45:06.826Z,59.30
2017-08-22T02:47:33.336Z,58.90
2017-08-22T02:49:59.735Z,59.50
2017-08-22T02:52:26.142Z,60.60
2017-08-22T02:54:52.558Z,61.10
2017-08-22T02:57:18.991Z,61.30
2017-08-22T02:59:52.009Z,61.40
2017-08-22T03:02:20.106Z,61.00
2017-08-22T03:04:46.543Z,61.90
2017-08-22T03:07:12.945Z,61.90
2017-08-22T03:09:39.347Z,62.00
2017-08-22T03:12:05.750Z,62.30
2017-08-22T03:14:32.222Z,62.30
2017-08-22T03:16:58.627Z,62.30
2017-08-22T03:19:25.038Z,62.00
2017-08-22T03:21:51.457Z,61.70
2017-08-22T03:24:17.866Z,61.90
2017-08-22T03:26:47.053Z,61.90
2017-08-22T03:29:14.327Z,61.30
2017-08-22T03:31:40.746Z,61.70
2017-08-22T03:34:07.171Z,61.80
2017-08-22T03:36:33.550Z,61.40
2017-08-22T03:38:59.956Z,60.80
2017-08-22T03:41:26.358Z,61.30
2017-08-22T03:43:52.760Z,61.20
2017-08-22T03:46:19.158Z,61.30
2017-08-22T03:48:54.270Z,61.00
2017-08-22T03:51:20.871Z,61.20
2017-08-22T03:53:47.271Z,60.60
2017-08-22T03:56:13.675Z,60.40
2017-08-22T03:58:40.091Z,61.00
2017-08-22T04:01:06.495Z,61.50
2017-08-22T04:03:32.955Z,61.30
2017-08-22T04:05:59.370Z,61.20
2017-08-22T04:08:25.798Z,61.10
2017-08-22T04:10:52.262Z,61.30
2017-08-22T04:13:18.653Z,60.80
2017-08-22T04:15:53.810Z,61.50
2017-08-22T04:18:20.243Z,61.80
2017-08-22T04:20:46.643Z,62.20
2017-08-22T04:23:13.031Z,63.60
2017-08-22T04:25:39.449Z,64.40
2017-08-22T04:28:05.834Z,64.30
2017-08-22T04:30:32.250Z,64.50
2017-08-22T04:32:58.695Z,64.50
2017-08-22T04:35:25.121Z,62.30
2017-08-22T04:37:51.531Z,62.00
2017-08-22T04:40:17.926Z,62.10
2017-08-22T04:42:46.771Z,62.70
2017-08-22T04:45:14.202Z,62.90
2017-08-22T04:47:41.047Z,63.00
2017-08-22T04:50:07.466Z,62.70
2017-08-22T04:52:33.958Z,62.80
2017-08-22T04:55:00.348Z,62.60
2017-08-22T04:57:26.747Z,62.60
2017-08-22T04:59:53.165Z,63.30
2017-08-22T05:02:19.618Z,63.70
2017-08-22T05:04:48.858Z,63.40
2017-08-22T05:07:15.238Z,62.90
2017-08-22T05:09:41.642Z,62.50
2017-08-22T05:12:16.492Z,62.80
2017-08-22T05:14:42.959Z,62.80
2017-08-22T05:17:10.158Z,63.40
2017-08-22T05:19:36.702Z,63.70
2017-08-22T05:22:03.162Z,63.40
2017-08-22T05:24:29.625Z,63.40
2017-08-22T05:26:56.219Z,63.40
2017-08-22T05:29:22.670Z,63.30
2017-08-22T05:31:49.099Z,63.50
2017-08-22T05:34:15.612Z,63.60
2017-08-22T05:36:42.147Z,64.50
2017-08-22T05:39:08.650Z,64.10
2017-08-22T05:41:35.144Z,63.90
2017-08-22T05:44:01.648Z,63.70
2017-08-22T05:46:28.115Z,63.50
2017-08-22T05:48:54.585Z,63.40
2017-08-22T05:51:21.052Z,64.20
2017-08-22T05:53:47.524Z,63.40
2017-08-22T05:56:13.986Z,63.10
2017-08-22T05:58:40.479Z,63.70
2017-08-22T06:01:06.944Z,64.10
2017-08-22T06:03:33.445Z,64.50
2017-08-22T06:05:59.981Z,64.20
2017-08-22T06:08:26.459Z,63.70
2017-08-22T06:10:53.399Z,63.50
2017-08-22T06:13:19.927Z,63.50
2017-08-22T06:15:46.398Z,63.40
2017-08-22T06:18:12.882Z,63.30
2017-08-22T06:20:39.430Z,63.50
2017-08-22T06:23:05.893Z,62.90
2017-08-22T06:25:32.362Z,62.80
2017-08-22T06:27:58.829Z,61.90
2017-08-22T06:30:25.301Z,60.90
2017-08-22T06:32:51.769Z,60.10
2017-08-22T06:35:18.227Z,59.60
2017-08-22T06:37:44.713Z,59.30
2017-08-22T06:40:11.220Z,57.50
2017-08-22T06:42:37.703Z,56.50
2017-08-22T06:45:04.192Z,56.40
2017-08-22T06:47:30.653Z,55.40
2017-08-22T06:49:57.169Z,54.90
2017-08-22T06:52:23.658Z,54.10
2017-08-22T06:54:50.106Z,53.20
2017-08-22T06:57:16.587Z,53.50
2017-08-22T06:59:43.040Z,52.30
2017-08-22T07:02:09.490Z,52.40
2017-08-22T07:04:36.874Z,51.80
2017-08-22T07:07:03.335Z,51.70
2017-08-22T07:09:29.819Z,51.50
2017-08-22T07:11:57.003Z,51.10
2017-08-22T07:14:23.438Z,51.10
2017-08-22T07:16:49.912Z,50.90
2017-08-22T07:19:21.419Z,51.20
2017-08-22T07:21:47.911Z,51.10
2017-08-22T07:24:14.399Z,51.60
2017-08-22T07:26:40.868Z,51.60
2017-08-22T07:29:07.311Z,51.00
2017-08-22T07:31:33.766Z,50.90
2017-08-22T07:34:00.961Z,50.80
2017-08-22T07:36:32.496Z,50.80
2017-08-22T07:38:58.970Z,51.10
2017-08-22T07:41:25.458Z,50.30
2017-08-22T07:43:51.907Z,50.20
2017-08-22T07:46:18.395Z,50.50
2017-08-22T07:48:45.041Z,49.80
2017-08-22T07:51:11.582Z,48.40
2017-08-22T07:53:38.052Z,49.00
2017-08-22T07:56:04.503Z,48.40
2017-08-22T07:58:30.999Z,47.60
2017-08-22T08:00:57.476Z,47.20
2017-08-22T08:03:23.972Z,48.20
2017-08-22T08:05:50.406Z,47.90
2017-08-22T08:08:16.874Z,47.50
2017-08-22T08:10:43.318Z,47.20
2017-08-22T08:13:09.801Z,48.20
2017-08-22T08:15:36.275Z,47.00
2017-08-22T08:18:02.769Z,46.40
2017-08-22T08:20:29.253Z,44.60
2017-08-22T08:22:55.753Z,44.60
2017-08-22T08:25:22.576Z,44.40
2017-08-22T08:27:49.054Z,42.80
2017-08-22T08:30:15.585Z,43.10
2017-08-22T08:32:42.037Z,42.30
2017-08-22T08:35:08.496Z,43.10
2017-08-22T08:37:35.730Z,41.80
2017-08-22T08:40:02.209Z,41.80
2017-08-22T08:42:28.703Z,42.00
2017-08-22T08:44:55.158Z,42.00
2017-08-22T08:47:21.695Z,41.20
2017-08-22T08:49:48.249Z,38.80
2017-08-22T08:52:14.766Z,40.30
2017-08-22T08:54:41.245Z,41.20
2017-08-22T08:57:07.716Z,41.90
2017-08-22T08:59:34.194Z,41.20
2017-08-22T09:02:00.649Z,41.20
2017-08-22T09:04:27.115Z,40.30
2017-08-22T09:06:53.562Z,39.70
2017-08-22T09:09:20.026Z,39.70
2017-08-22T09:11:46.488Z,41.00
2017-08-22T09:14:12.938Z,39.70
2017-08-22T09:16:39.407Z,40.30
2017-08-22T09:19:05.900Z,39.70
2017-08-22T09:21:32.365Z,39.90
2017-08-22T09:23:58.805Z,39.50
2017-08-22T09:26:25.311Z,39.50
2017-08-22T09:28:51.794Z,39.80
2017-08-22T09:31:18.277Z,38.50
2017-08-22T09:33:44.737Z,38.30
2017-08-22T09:36:11.217Z,38.50
2017-08-22T09:38:37.676Z,39.60
2017-08-22T09:41:04.192Z,39.50
2017-08-22T09:43:30.651Z,38.50
2017-08-22T09:45:57.128Z,38.00
2017-08-22T09:48:23.598Z,38.30
2017-08-22T09:50:50.132Z,39.50
2017-08-22T09:53:16.630Z,40.00
2017-08-22T09:55:43.098Z,39.10
2017-08-22T09:58:09.555Z,39.90
2017-08-22T10:00:36.012Z,38.80
2017-08-22T10:03:02.472Z,39.00
2017-08-22T10:05:28.912Z,38.00
2017-08-22T10:07:55.360Z,37.00
2017-08-22T10:10:21.820Z,36.80
2017-08-22T10:12:48.291Z,36.70
2017-08-22T10:15:14.760Z,37.50
2017-08-22T10:17:41.202Z,37.10
2017-08-22T10:20:07.649Z,36.60
2017-08-22T10:22:34.119Z,35.60
2017-08-22T10:25:00.556Z,37.20
2017-08-22T10:27:27.001Z,35.10
2017-08-22T10:29:53.455Z,34.50
2017-08-22T10:32:19.940Z,35.90
2017-08-22T10:34:46.389Z,36.30
2017-08-22T10:37:12.873Z,34.30
2017-08-22T10:39:39.358Z,34.40
2017-08-22T10:42:05.824Z,35.90
2017-08-22T10:44:32.325Z,35.70
2017-08-22T10:46:58.823Z,35.00
2017-08-22T10:49:25.303Z,35.90
2017-08-22T10:51:51.792Z,36.60
2017-08-22T10:54:18.288Z,35.30
2017-08-22T10:56:44.727Z,35.40
2017-08-22T10:59:11.214Z,36.30
2017-08-22T11:01:37.692Z,34.80
2017-08-22T11:04:04.128Z,34.00
2017-08-22T11:06:30.964Z,32.20
2017-08-22T11:08:57.407Z,32.80
2017-08-22T11:11:23.886Z,33.80
2017-08-22T11:13:50.340Z,32.80
2017-08-22T11:16:16.788Z,31.90
2017-08-22T11:18:43.245Z,32.70
2017-08-22T11:21:09.698Z,31.90
2017-08-22T11:23:36.158Z,33.00
2017-08-22T11:26:02.613Z,33.10
2017-08-22T11:28:29.087Z,32.10
2017-08-22T11:30:55.602Z,32.50
2017-08-22T11:33:22.068Z,33.00
2017-08-22T11:35:48.549Z,33.80
2017-08-22T11:38:14.995Z,33.70
2017-08-22T11:40:41.449Z,31.90
2017-08-22T11:43:08.913Z,32.00
2017-08-22T11:45:35.369Z,32.80
2017-08-22T11:48:01.811Z,32.30
2017-08-22T11:50:28.261Z,33.00
2017-08-22T11:52:54.731Z,33.60
2017-08-22T11:55:21.173Z,34.40
2017-08-22T11:57:47.598Z,34.10
2017-08-22T12:00:14.161Z,34.30
2017-08-22T12:02:40.616Z,34.10
2017-08-22T12:05:07.060Z,34.50
2017-08-22T12:07:33.521Z,32.80
2017-08-22T12:10:00.878Z,32.60
2017-08-22T12:12:27.358Z,33.20
2017-08-22T12:14:53.814Z,33.50
2017-08-22T12:17:20.249Z,34.40
2017-08-22T12:19:46.749Z,34.30
2017-08-22T12:22:13.222Z,33.90
2017-08-22T12:24:39.672Z,31.80
2017-08-22T12:27:06.128Z,32.10
2017-08-22T12:29:32.593Z,31.90
2017-08-22T12:31:59.021Z,31.90
2017-08-22T12:34:25.453Z,32.80
2017-08-22T12:36:51.913Z,32.70
2017-08-22T12:39:18.379Z,32.00
2017-08-22T12:41:44.865Z,32.20
2017-08-22T12:44:11.321Z,32.30
2017-08-22T12:46:37.793Z,31.60
2017-08-22T12:49:04.308Z,31.50
2017-08-22T12:51:30.867Z,31.90
2017-08-22T12:53:57.353Z,32.20
2017-08-22T12:56:23.875Z,31.50
2017-08-22T12:58:50.369Z,32.80
2017-08-22T13:01:16.885Z,32.20
2017-08-22T13:03:43.404Z,31.50
2017-08-22T13:06:09.880Z,31.60
2017-08-22T13:08:36.337Z,32.00
2017-08-22T13:11:02.842Z,32.80
2017-08-22T13:13:34.373Z,32.10
2017-08-22T13:16:00.833Z,32.40
2017-08-22T13:18:27.262Z,33.30
2017-08-22T13:20:53.731Z,32.90
2017-08-22T13:23:20.204Z,33.60
2017-08-22T13:25:46.650Z,33.80
2017-08-22T13:28:18.223Z,33.70
2017-08-22T13:30:44.677Z,33.00
2017-08-22T13:33:11.130Z,33.20
2017-08-22T13:35:37.601Z,34.00
2017-08-22T13:38:04.056Z,34.30
2017-08-22T13:40:30.507Z,34.00
2017-08-22T13:42:56.986Z,34.00
2017-08-22T13:45:23.439Z,32.80
2017-08-22T13:47:49.892Z,33.20
2017-08-22T13:50:16.328Z,32.80
2017-08-22T13:52:42.843Z,32.90
2017-08-22T13:55:09.312Z,33.10
2017-08-22T13:57:35.783Z,33.00
2017-08-22T14:00:02.236Z,33.50
2017-08-22T14:02:28.743Z,32.90
2017-08-22T14:04:55.184Z,33.10
2017-08-22T14:07:21.640Z,32.90
2017-08-22T14:09:48.843Z,32.60
2017-08-22T14:12:15.280Z,32.60
2017-08-22T14:14:41.743Z,32.00
2017-08-22T14:17:08.221Z,32.10
2017-08-22T14:19:34.701Z,32.60
2017-08-22T14:22:01.159Z,32.90
2017-08-22T14:24:27.619Z,33.00
2017-08-22T14:26:54.046Z,33.00
2017-08-22T14:29:20.545Z,33.30
2017-08-22T14:31:46.999Z,33.60
2017-08-22T14:34:13.457Z,33.10
2017-08-22T14:36:39.897Z,33.70
2017-08-22T14:39:06.360Z,33.70
2017-08-22T14:41:32.827Z,33.30
2017-08-22T14:43:59.316Z,33.20
2017-08-22T14:46:25.774Z,33.30
2017-08-22T14:48:52.257Z,33.30
2017-08-22T14:51:18.720Z,33.20
2017-08-22T14:53:45.151Z,33.10
2017-08-22T14:56:11.624Z,32.90
2017-08-22T14:58:38.089Z,34.20
2017-08-22T15:01:04.600Z,33.70
2017-08-22T15:03:31.067Z,33.60
2017-08-22T15:05:57.524Z,33.50
2017-08-22T15:08:23.985Z,33.80
2017-08-22T15:10:50.433Z,34.30
2017-08-22T15:13:16.882Z,34.20
2017-08-22T15:15:44.084Z,33.60
2017-08-22T15:18:10.512Z,33.60
2017-08-22T15:20:36.979Z,34.30
2017-08-22T15:23:03.512Z,33.60
2017-08-22T15:25:29.961Z,33.10
2017-08-22T15:27:56.424Z,33.20
2017-08-22T15:30:22.854Z,33.20
2017-08-22T15:32:49.292Z,33.30
2017-08-22T15:35:15.743Z,33.40
2017-08-22T15:37:42.201Z,33.00
2017-08-22T15:40:08.702Z,33.30
2017-08-22T15:42:35.161Z,33.50
2017-08-22T15:45:01.615Z,33.30
2017-08-22T15:47:28.072Z,33.30
2017-08-22T15:49:54.523Z,33.80
2017-08-22T15:52:20.956Z,33.80
2017-08-22T15:54:47.416Z,34.30
2017-08-22T15:57:13.876Z,34.30
2017-08-22T15:59:40.356Z,34.40
2017-08-22T16:02:06.820Z,34.30
2017-08-22T16:04:33.276Z,34.90
2017-08-22T16:07:00.053Z,34.00
2017-08-22T16:09:26.693Z,34.10
2017-08-22T16:11:53.148Z,33.90
2017-08-22T16:14:19.618Z,34.60
2017-08-22T16:16:46.121Z,34.20
2017-08-22T16:19:12.575Z,34.70
2017-08-22T16:21:39.028Z,34.50
2017-08-22T16:24:05.511Z,34.60
2017-08-22T16:26:31.962Z,34.60
2017-08-22T16:28:58.404Z,34.80
2017-08-22T16:32:01.427Z,34.90
2017-08-22T16:34:27.871Z,35.20
2017-08-22T16:36:54.417Z,35.90
2017-08-22T16:39:20.852Z,35.70
2017-08-22T16:41:47.295Z,35.70
2017-08-22T16:44:13.759Z,36.00
2017-08-22T16:46:40.284Z,36.00
2017-08-22T16:49:06.760Z,36.60
2017-08-22T16:51:33.209Z,36.60
2017-08-22T16:53:59.669Z,36.40
2017-08-22T16:56:26.121Z,36.90
2017-08-22T16:58:52.581Z,36.60
2017-08-22T17:01:19.023Z,36.70
2017-08-22T17:03:45.495Z,36.50
2017-08-22T17:06:12.012Z,36.50
2017-08-22T17:08:38.592Z,36.80
2017-08-22T17:11:05.034Z,36.80
2017-08-22T17:13:31.549Z,37.00
2017-08-22T17:15:58.035Z,37.10
2017-08-22T17:18:24.525Z,37.10
2017-08-22T17:20:50.987Z,36.90
2017-08-22T17:23:17.436Z,37.00
2017-08-22T17:25:43.941Z,36.80
2017-08-22T17:28:10.419Z,37.40
2017-08-22T17:30:36.880Z,37.40
2017-08-22T17:33:03.317Z,38.00
2017-08-22T17:35:29.750Z,38.30
2017-08-22T17:37:56.207Z,38.80
2017-08-22T17:40:22.767Z,39.20
2017-08-22T17:42:49.223Z,39.40
2017-08-22T17:45:15.673Z,39.70
2017-08-22T17:47:42.873Z,40.40
2017-08-22T17:50:09.317Z,40.30
2017-08-22T17:52:35.796Z,40.50
2017-08-22T17:55:02.248Z,40.10
2017-08-22T17:57:28.699Z,40.70
2017-08-22T17:59:55.148Z,40.90
2017-08-22T18:02:21.631Z,41.10
2017-08-22T18:04:48.485Z,41.30
2017-08-22T18:07:14.932Z,41.60
2017-08-22T18:09:41.410Z,41.80
2017-08-22T18:12:07.868Z,42.40
2017-08-22T18:14:34.305Z,42.30
2017-08-22T18:17:00.772Z,42.30
2017-08-22T18:19:27.235Z,42.60
2017-08-22T18:21:53.811Z,42.40
2017-08-22T18:24:20.261Z,43.00
2017-08-22T18:26:46.797Z,43.20
2017-08-22T18:29:13.267Z,43.40
2017-08-22T18:31:39.704Z,43.20
2017-08-22T18:34:06.156Z,43.30
2017-08-22T18:36:32.794Z,44.10
2017-08-22T18:39:00.024Z,43.90
2017-08-22T18:41:26.476Z,43.80
2017-08-22T18:43:52.920Z,44.20
2017-08-22T18:46:19.369Z,44.40
2017-08-22T18:48:45.822Z,44.30
2017-08-22T18:51:12.285Z,44.50
2017-08-22T18:53:38.720Z,44.70
2017-08-22T18:56:05.199Z,44.90
2017-08-22T18:58:31.667Z,45.60
2017-08-22T19:00:58.140Z,45.50
2017-08-22T19:03:24.649Z,45.30
2017-08-22T19:05:51.186Z,45.30
2017-08-22T19:08:17.650Z,45.40
2017-08-22T19:10:44.117Z,45.70
2017-08-22T19:13:10.621Z,46.50
2017-08-22T19:15:37.130Z,45.70
2017-08-22T19:18:03.625Z,45.80
2017-08-22T19:20:30.098Z,46.40
2017-08-22T19:22:56.594Z,46.20
2017-08-22T19:25:23.081Z,46.50
2017-08-22T19:27:49.595Z,47.10
2017-08-22T19:30:16.133Z,47.50
2017-08-22T19:32:43.009Z,47.50
2017-08-22T19:35:09.490Z,47.60
2017-08-22T19:37:36.448Z,47.90
2017-08-22T19:40:03.021Z,47.50
2017-08-22T19:42:29.508Z,47.80
2017-08-22T19:44:55.985Z,47.90
2017-08-22T19:47:22.459Z,48.00
2017-08-22T19:49:48.979Z,47.90
2017-08-22T19:52:15.473Z,47.60
2017-08-22T19:54:41.927Z,47.80
2017-08-22T19:57:08.383Z,48.00
2017-08-22T19:59:34.869Z,48.30
2017-08-22T20:02:01.317Z,48.30
2017-08-22T20:04:27.794Z,48.50
2017-08-22T20:06:54.259Z,48.80
2017-08-22T20:09:20.733Z,49.10
2017-08-22T20:11:47.190Z,49.70
2017-08-22T20:14:14.397Z,50.10
2017-08-22T20:16:40.901Z,50.10
2017-08-22T20:19:07.358Z,49.80
2017-08-22T20:21:33.833Z,50.00
2017-08-22T20:24:00.308Z,50.00
2017-08-22T20:26:26.782Z,50.20
2017-08-22T20:28:53.226Z,50.70
2017-08-22T20:31:19.680Z,50.80
2017-08-22T20:33:46.144Z,50.40
2017-08-22T20:36:12.602Z,50.90
2017-08-22T20:38:39.153Z,51.00
2017-08-22T20:41:05.623Z,51.00
2017-08-22T20:43:32.050Z,51.10
2017-08-22T20:45:58.514Z,51.30
2017-08-22T20:48:25.099Z,51.90
2017-08-22T20:50:51.557Z,52.10
2017-08-22T20:53:18.029Z,52.60
2017-08-22T20:55:44.483Z,52.70
2017-08-22T20:58:10.981Z,52.60
2017-08-22T21:00:37.442Z,52.90
2017-08-22T21:03:03.948Z,52.80
2017-08-22T21:05:30.422Z,52.80
2017-08-22T21:07:56.884Z,52.70
2017-08-22T21:10:23.358Z,52.90
2017-08-22T21:12:49.839Z,53.00
2017-08-22T21:15:16.283Z,53.10
2017-08-22T21:17:42.751Z,53.30
2017-08-22T21:20:09.250Z,53.60
2017-08-22T21:22:35.715Z,53.90
2017-08-22T21:25:02.181Z,54.50
2017-08-22T21:27:29.270Z,54.40
2017-08-22T21:29:55.715Z,54.40
2017-08-22T21:32:22.142Z,54.50
2017-08-22T21:34:48.592Z,54.20
2017-08-22T21:37:15.138Z,54.80
2017-08-22T21:39:41.590Z,54.60
2017-08-22T21:42:08.052Z,54.60
2017-08-22T21:44:34.510Z,54.50
2017-08-22T21:47:00.990Z,54.10
2017-08-22T21:49:27.503Z,54.20
2017-08-22T21:51:53.976Z,54.10
2017-08-22T21:54:20.535Z,53.80
2017-08-22T21:56:46.988Z,53.80
2017-08-22T21:59:13.439Z,53.40
2017-08-22T22:01:39.883Z,53.60
2017-08-22T22:04:06.339Z,53.80
2017-08-22T22:06:32.832Z,54.00
2017-08-22T22:08:59.284Z,53.70
2017-08-22T22:11:25.784Z,53.60
2017-08-22T22:13:52.258Z,53.80
2017-08-22T22:16:18.718Z,53.60
2017-08-22T22:18:45.151Z,54.30
2017-08-22T22:21:11.584Z,55.40
2017-08-22T22:23:38.044Z,55.80
2017-08-22T22:26:04.508Z,56.60
2017-08-22T22:28:30.943Z,57.00
2017-08-22T22:30:57.392Z,56.50
2017-08-22T22:33:23.870Z,56.70
2017-08-22T22:35:50.343Z,57.00
2017-08-22T22:38:16.785Z,56.90
2017-08-22T22:40:43.263Z,56.80
2017-08-22T22:43:09.717Z,57.00
2017-08-22T22:45:36.212Z,56.30
2017-08-22T22:48:02.656Z,56.80
2017-08-22T22:50:29.221Z,56.10
2017-08-22T22:52:55.691Z,56.10
2017-08-22T22:55:22.174Z,56.50
2017-08-22T22:57:48.673Z,55.80
2017-08-22T23:00:15.118Z,56.30
2017-08-22T23:02:41.601Z,56.40
2017-08-22T23:05:08.092Z,56.20
2017-08-22T23:07:34.573Z,56.30
2017-08-22T23:10:01.030Z,56.30
2017-08-22T23:12:27.508Z,56.50
2017-08-22T23:14:53.947Z,56.40
2017-08-22T23:17:20.380Z,56.60
2017-08-22T23:19:46.860Z,56.60
2017-08-22T23:22:13.294Z,56.60
2017-08-22T23:24:39.776Z,56.90
2017-08-22T23:27:06.209Z,56.50
2017-08-22T23:29:32.635Z,56.60
2017-08-22T23:31:59.093Z,57.00
2017-08-22T23:34:25.556Z,57.30
2017-08-22T23:36:52.003Z,57.20
2017-08-22T23:39:18.450Z,57.20
2017-08-22T23:41:44.883Z,57.30
2017-08-22T23:44:11.345Z,57.20
2017-08-22T23:46:37.818Z,57.40
2017-08-22T23:49:04.251Z,57.20
2017-08-22T23:51:30.701Z,57.40
2017-08-22T23:53:57.179Z,58.60
2017-08-22T23:56:23.709Z,58.20
2017-08-22T23:58:50.141Z,58.50
